Time;durP1;ratioP1;P1;durP2;ratioP2;P2;SDS_P1;SDS_P2;PMS_P1;PMS_P2;Temp;Humidity;BMP_temperature;BMP_pressure;BME280_temperature;BME280_humidity;BME280_pressure;Samples;Min_cycle;Max_cycle;Signal;HPM_P1;HPM_P2
2021/08/31 00:02:15;;;;;;;7.70;3.55;;;;;;;16.52;100.00;101438.72;4972680;28;20396;-66
2021/08/31 00:04:40;;;;;;;5.97;3.53;;;;;;;16.51;100.00;101436.38;4973908;28;20039;-67
2021/08/31 00:07:06;;;;;;;8.98;3.63;;;;;;;16.30;100.00;101434.19;4973503;28;20034;-66
2021/08/31 00:09:31;;;;;;;6.30;3.22;;;;;;;16.36;100.00;101431.91;4983462;28;20035;-67
2021/08/31 00:11:56;;;;;;;5.43;3.13;;;;;;;16.39;100.00;101433.91;4971431;28;20137;-67
2021/08/31 00:14:22;;;;;;;5.93;3.00;;;;;;;16.42;100.00;101436.63;4973112;28;20057;-66
2021/08/31 00:16:47;;;;;;;7.93;3.58;;;;;;;16.46;100.00;101436.66;4973561;28;20035;-66
2021/08/31 00:19:13;;;;;;;7.43;3.45;;;;;;;16.45;100.00;101437.84;4972818;28;20487;-66
2021/08/31 00:21:40;;;;;;;6.28;3.50;;;;;;;16.43;100.00;101432.78;4965092;28;20472;-68
2021/08/31 00:24:05;;;;;;;7.13;3.25;;;;;;;16.40;100.00;101432.72;4972603;28;20030;-67
2021/08/31 00:26:31;;;;;;;6.43;3.50;;;;;;;16.42;100.00;101425.75;4973802;28;20101;-67
2021/08/31 00:28:56;;;;;;;10.00;3.35;;;;;;;16.37;100.00;101433.50;4972165;28;20042;-66
2021/08/31 00:31:22;;;;;;;4.43;2.40;;;;;;;16.39;100.00;101428.47;4972369;28;20035;-67
2021/08/31 00:33:47;;;;;;;7.05;3.50;;;;;;;16.40;100.00;101424.56;4973327;28;20058;-66
2021/08/31 00:36:13;;;;;;;6.82;3.45;;;;;;;16.40;100.00;101425.34;4987444;28;20380;-67
2021/08/31 00:38:38;;;;;;;8.18;3.60;;;;;;;16.40;100.00;101438.94;4987844;28;20504;-67
2021/08/31 00:41:04;;;;;;;6.50;3.20;;;;;;;16.37;100.00;101436.19;4971844;28;20050;-67
2021/08/31 00:43:42;;;;;;;8.57;3.47;;;;;;;16.23;100.00;101434.91;4972908;28;20031;-67
2021/08/31 00:46:08;;;;;;;6.28;3.22;;;;;;;16.25;100.00;101443.47;4972431;28;20038;-67
2021/08/31 00:48:33;;;;;;;7.80;3.60;;;;;;;16.18;100.00;101442.63;4972936;28;20046;-66
2021/08/31 00:50:58;;;;;;;6.07;3.20;;;;;;;16.14;100.00;101450.72;4969863;28;20054;-67
2021/08/31 00:53:24;;;;;;;8.45;3.35;;;;;;;16.19;100.00;101450.41;4971966;28;20142;-67
2021/08/31 00:55:49;;;;;;;5.97;3.40;;;;;;;16.18;100.00;101454.25;4971797;28;20101;-66
2021/08/31 00:58:15;;;;;;;7.07;3.03;;;;;;;16.21;100.00;101450.03;4972131;28;20046;-66
2021/08/31 01:00:41;;;;;;;5.93;3.05;;;;;;;16.19;100.00;101450.41;4972857;28;20046;-68
2021/08/31 01:03:06;;;;;;;6.05;3.10;;;;;;;16.20;100.00;101451.97;4971963;28;20042;-67
2021/08/31 01:05:35;;;;;;;8.07;3.55;;;;;;;16.17;100.00;101452.72;4972304;28;20047;-67
2021/08/31 01:08:02;;;;;;;6.50;3.28;;;;;;;16.18;100.00;101443.41;4972269;28;20055;-67
2021/08/31 01:10:27;;;;;;;6.72;3.20;;;;;;;16.14;100.00;101448.00;4971994;28;20394;-67
2021/08/31 01:12:54;;;;;;;7.03;3.40;;;;;;;16.19;100.00;101450.41;4971736;28;20125;-67
2021/08/31 01:15:20;;;;;;;5.90;3.53;;;;;;;16.17;100.00;101443.78;4972061;28;20066;-66
2021/08/31 01:17:46;;;;;;;6.78;3.22;;;;;;;16.13;100.00;101445.66;4971081;28;20514;-66
2021/08/31 01:20:12;;;;;;;5.22;3.13;;;;;;;16.11;100.00;101448.75;4971874;28;20058;-67
2021/08/31 01:22:57;;;;;;;7.07;3.10;;;;;;;16.10;100.00;101455.34;4960364;28;20035;-67
2021/08/31 01:25:23;;;;;;;6.18;3.30;;;;;;;15.94;100.00;101452.06;4971823;28;20053;-68
2021/08/31 01:27:48;;;;;;;7.43;3.30;;;;;;;16.03;100.00;101457.19;4972290;28;20065;-66
2021/08/31 01:30:14;;;;;;;4.72;3.03;;;;;;;16.05;100.00;101457.63;4969885;28;20506;-67
2021/08/31 01:32:39;;;;;;;5.88;3.15;;;;;;;16.03;100.00;101457.19;4986204;28;20402;-68
2021/08/31 01:35:05;;;;;;;6.50;3.20;;;;;;;15.99;100.00;101456.38;4971731;28;20042;-68
2021/08/31 01:37:30;;;;;;;5.65;2.83;;;;;;;15.95;100.00;101452.88;4971897;28;20078;-66
2021/08/31 01:39:56;;;;;;;6.78;2.88;;;;;;;15.82;100.00;101444.16;4971861;28;20110;-67
2021/08/31 01:42:21;;;;;;;6.38;3.05;;;;;;;15.84;100.00;101447.28;4971420;28;20133;-66
2021/08/31 01:44:47;;;;;;;6.40;3.40;;;;;;;15.83;100.00;101443.00;4970992;28;20077;-66
2021/08/31 01:47:12;;;;;;;7.65;3.10;;;;;;;15.83;100.00;101456.59;4969827;28;20054;-67
2021/08/31 01:49:38;;;;;;;5.25;2.97;;;;;;;15.79;100.00;101449.56;4971232;28;20523;-67
2021/08/31 01:52:03;;;;;;;6.00;3.22;;;;;;;15.79;100.00;101444.91;4971185;28;20419;-67
2021/08/31 01:54:29;;;;;;;7.72;3.50;;;;;;;15.79;100.00;101450.34;4970059;28;20035;-67
2021/08/31 01:56:54;;;;;;;5.55;3.05;;;;;;;15.77;100.00;101449.94;4954429;28;20150;-68
2021/08/31 01:59:20;;;;;;;6.85;3.15;;;;;;;15.80;100.00;101441.03;4971375;28;20043;-66
2021/08/31 02:01:45;;;;;;;7.88;3.53;;;;;;;15.72;100.00;101450.25;4971207;28;20031;-66
2021/08/31 02:04:11;;;;;;;7.75;3.05;;;;;;;15.56;100.00;101446.97;4969356;28;20514;-67
2021/08/31 02:06:36;;;;;;;5.90;3.08;;;;;;;15.65;100.00;101443.94;4971197;28;20043;-67
2021/08/31 02:09:02;;;;;;;8.45;3.10;;;;;;;15.66;100.00;101445.53;4971511;28;20034;-67
2021/08/31 02:11:28;;;;;;;6.38;3.28;;;;;;;15.64;100.00;101454.03;4968989;28;20034;-67
2021/08/31 02:13:54;;;;;;;6.63;3.28;;;;;;;15.56;100.00;101455.09;4971020;28;20033;-67
2021/08/31 02:16:19;;;;;;;6.55;3.67;;;;;;;15.62;100.00;101453.59;4971002;28;20404;-67
2021/08/31 02:18:47;;;;;;;7.95;3.28;;;;;;;15.59;100.00;101451.66;4970731;28;20466;-68
2021/08/31 02:21:13;;;;;;;7.35;3.50;;;;;;;15.63;100.00;101457.13;4970672;28;20062;-67
2021/08/31 02:23:42;;;;;;;7.80;3.33;;;;;;;15.61;100.00;101446.63;4971180;28;20031;-68
2021/08/31 02:26:08;;;;;;;7.30;3.22;;;;;;;15.59;100.00;101451.66;4986131;28;20046;-68
2021/08/31 02:28:33;;;;;;;5.50;3.25;;;;;;;15.62;100.00;101452.84;4970992;28;20110;-67
2021/08/31 02:30:59;;;;;;;10.27;3.78;;;;;;;15.53;100.00;101458.53;4969015;28;20066;-67
2021/08/31 02:33:24;;;;;;;8.57;4.18;;;;;;;15.52;100.00;101456.19;4971596;28;20054;-66
2021/08/31 02:35:50;;;;;;;7.05;3.65;;;;;;;15.47;100.00;101456.50;4970888;28;20170;-67
2021/08/31 02:38:15;;;;;;;8.38;3.40;;;;;;;15.47;100.00;101453.78;4970829;28;20407;-67
2021/08/31 02:40:41;;;;;;;7.45;3.47;;;;;;;15.50;100.00;101453.88;4985828;28;20483;-67
2021/08/31 02:43:06;;;;;;;10.23;3.67;;;;;;;15.54;100.00;101464.75;4969973;28;20029;-68
2021/08/31 02:45:32;;;;;;;5.15;3.33;;;;;;;15.51;100.00;101447.25;4965657;28;20485;-67
2021/08/31 02:47:57;;;;;;;6.55;3.63;;;;;;;15.52;100.00;101450.78;4963547;28;20275;-67
2021/08/31 02:50:23;;;;;;;5.75;3.13;;;;;;;15.53;100.00;101452.31;4970647;28;20043;-67
2021/08/31 02:52:49;;;;;;;7.47;3.50;;;;;;;15.52;100.00;101448.84;4969658;28;20038;-66
2021/08/31 02:55:14;;;;;;;7.28;3.45;;;;;;;15.51;100.00;101455.41;4969936;28;20026;-66
2021/08/31 02:57:40;;;;;;;6.43;3.50;;;;;;;15.46;100.00;101447.59;4970135;28;20038;-67
2021/08/31 03:00:09;;;;;;;6.43;3.42;;;;;;;15.49;100.00;101446.84;4970957;28;20041;-68
2021/08/31 03:02:35;;;;;;;7.07;3.33;;;;;;;15.47;100.00;101443.72;4969292;28;20097;-68
2021/08/31 03:05:01;;;;;;;6.35;2.83;;;;;;;15.45;100.00;101450.69;4985748;28;20050;-67
2021/08/31 03:07:26;;;;;;;6.38;3.65;;;;;;;15.44;100.00;101452.63;4971871;28;20043;-66
2021/08/31 03:09:51;;;;;;;7.95;3.85;;;;;;;15.31;100.00;101448.53;4970513;28;20522;-67
2021/08/31 03:12:17;;;;;;;8.05;3.28;;;;;;;15.38;100.00;101452.13;4965306;28;20043;-66
2021/08/31 03:14:43;;;;;;;9.48;3.58;;;;;;;15.33;100.00;101454.34;4971550;28;20127;-67
2021/08/31 03:17:08;;;;;;;11.35;3.80;;;;;;;15.36;100.00;101445.50;4974501;28;20046;-66
2021/08/31 03:19:36;;;;;;;7.55;3.85;;;;;;;15.30;100.00;101457.81;4975127;28;20035;-67
2021/08/31 03:22:03;;;;;;;7.57;3.25;;;;;;;15.25;100.00;101456.19;4973272;28;20027;-67
2021/08/31 03:24:30;;;;;;;7.15;3.22;;;;;;;15.22;100.00;101456.13;4973282;28;20058;-67
2021/08/31 03:26:56;;;;;;;8.35;3.42;;;;;;;15.25;100.00;101447.28;4974669;28;20073;-66
2021/08/31 03:29:21;;;;;;;8.43;3.65;;;;;;;15.28;100.00;101457.38;4974317;28;20070;-66
2021/08/31 03:31:47;;;;;;;6.10;3.13;;;;;;;15.23;100.00;101453.06;4973082;28;20047;-66
2021/08/31 03:34:13;;;;;;;7.45;3.72;;;;;;;15.15;100.00;101458.75;4973017;28;20057;-66
2021/08/31 03:36:38;;;;;;;8.52;3.45;;;;;;;15.16;100.00;101463.03;4973257;28;20043;-68
2021/08/31 03:39:05;;;;;;;7.13;3.17;;;;;;;15.14;100.00;101454.47;4973843;28;20037;-66
2021/08/31 03:41:30;;;;;;;6.53;3.55;;;;;;;15.14;100.00;101452.53;4972528;28;20090;-66
2021/08/31 03:43:56;;;;;;;7.00;3.25;;;;;;;15.15;100.00;101451.41;4972322;28;20803;-68
2021/08/31 03:46:21;;;;;;;7.18;3.75;;;;;;;15.11;100.00;101452.50;4973041;28;20027;-66
2021/08/31 03:48:47;;;;;;;6.60;3.22;;;;;;;15.09;100.00;101458.28;4973458;28;20030;-66
2021/08/31 03:51:12;;;;;;;7.40;3.83;;;;;;;15.11;100.00;101455.22;4972880;28;20039;-67
2021/08/31 03:53:38;;;;;;;7.90;2.88;;;;;;;15.11;100.00;101447.84;4972432;28;20038;-66
2021/08/31 03:56:03;;;;;;;5.80;3.28;;;;;;;15.06;100.00;101456.28;4973777;28;20039;-67
2021/08/31 03:58:29;;;;;;;6.45;3.15;;;;;;;15.05;100.00;101462.09;4964218;28;20059;-67
2021/08/31 04:00:54;;;;;;;7.38;3.40;;;;;;;15.03;100.00;101467.88;4972030;28;20448;-66
2021/08/31 04:03:20;;;;;;;6.18;3.10;;;;;;;15.00;100.00;101462.41;4961516;28;20037;-67
2021/08/31 04:05:45;;;;;;;8.23;3.38;;;;;;;14.99;100.00;101456.19;4972760;28;20089;-67
2021/08/31 04:08:11;;;;;;;6.18;3.28;;;;;;;14.98;100.00;101460.03;4972966;28;20034;-67
2021/08/31 04:10:36;;;;;;;6.90;3.20;;;;;;;15.00;100.00;101462.41;4972053;28;20034;-67
2021/08/31 04:13:02;;;;;;;8.77;3.28;;;;;;;14.95;100.00;101463.50;4971696;28;20043;-67
2021/08/31 04:15:27;;;;;;;5.63;2.97;;;;;;;14.86;100.00;101467.59;4972708;28;20047;-66
2021/08/31 04:17:53;;;;;;;7.05;3.17;;;;;;;14.84;100.00;101467.19;4973540;28;20078;-67
2021/08/31 04:20:18;;;;;;;6.22;3.15;;;;;;;14.80;100.00;101466.34;4972764;28;20035;-66
2021/08/31 04:22:44;;;;;;;6.03;3.25;;;;;;;14.73;100.00;101477.09;4971586;28;20030;-67
2021/08/31 04:25:10;;;;;;;6.82;3.00;;;;;;;14.72;100.00;101487.13;4973062;28;20113;-68
2021/08/31 04:27:35;;;;;;;5.63;2.80;;;;;;;14.76;100.00;101484.47;4972004;28;20066;-67
2021/08/31 04:30:01;;;;;;;7.97;3.60;;;;;;;14.78;100.00;101477.56;4987852;28;20081;-67
2021/08/31 04:32:27;;;;;;;7.43;3.50;;;;;;;14.79;100.00;101481.06;4971349;28;20066;-67
2021/08/31 04:34:55;;;;;;;7.78;3.50;;;;;;;14.82;100.00;101483.03;4972658;28;20031;-68
2021/08/31 04:37:21;;;;;;;5.78;2.90;;;;;;;14.82;100.00;101489.25;4971875;28;20495;-67
2021/08/31 04:39:47;;;;;;;5.70;3.45;;;;;;;14.75;100.00;101488.34;4970532;28;20046;-69
2021/08/31 04:42:12;;;;;;;6.13;3.08;;;;;;;14.74;100.00;101481.34;4969176;28;20057;-66
2021/08/31 04:44:37;;;;;;;7.68;3.17;;;;;;;14.78;100.00;101487.63;4963749;28;20118;-68
2021/08/31 04:47:03;;;;;;;7.07;3.20;;;;;;;14.76;100.00;101482.56;4984279;28;20038;-67
2021/08/31 04:49:29;;;;;;;5.70;3.00;;;;;;;14.65;100.00;101480.81;4971132;28;20026;-68
2021/08/31 04:51:54;;;;;;;7.00;2.80;;;;;;;14.66;100.00;101483.16;4968347;28;20034;-67
2021/08/31 04:54:19;;;;;;;7.60;2.80;;;;;;;14.70;100.00;101484.00;4971071;28;20135;-67
2021/08/31 04:56:45;;;;;;;6.82;3.03;;;;;;;14.73;100.00;101488.69;4972692;28;20506;-68
2021/08/31 04:59:11;;;;;;;8.98;2.95;;;;;;;14.78;100.00;101490.31;4982939;28;20035;-67
2021/08/31 05:01:36;;;;;;;5.25;2.67;;;;;;;14.80;100.00;101490.75;4968816;28;21226;-67
2021/08/31 05:04:02;;;;;;;7.70;3.28;;;;;;;14.84;100.00;101492.38;4969880;28;20554;-67
2021/08/31 05:06:27;;;;;;;8.13;2.95;;;;;;;14.87;100.00;101493.56;4970362;28;20121;-67
2021/08/31 05:08:53;;;;;;;5.25;3.10;;;;;;;14.89;100.00;101496.69;4972907;28;20053;-67
2021/08/31 05:11:19;;;;;;;8.95;2.85;;;;;;;14.92;100.00;101494.06;4972296;28;20502;-67
2021/08/31 05:13:45;;;;;;;8.85;3.60;;;;;;;14.92;100.00;101491.34;4971515;28;20606;-67
2021/08/31 05:16:14;;;;;;;6.40;3.03;;;;;;;14.97;100.00;101495.69;4966349;28;20038;-67
2021/08/31 05:18:40;;;;;;;6.63;3.30;;;;;;;14.97;100.00;101499.19;4964718;28;20026;-67
2021/08/31 05:21:06;;;;;;;8.65;3.20;;;;;;;15.03;100.00;101500.44;4969152;28;20038;-66
2021/08/31 05:23:32;;;;;;;7.35;3.28;;;;;;;15.07;100.00;101509.44;4969714;28;20060;-68
2021/08/31 05:25:58;;;;;;;10.20;3.53;;;;;;;15.07;100.00;101500.50;4971522;28;20120;-68
2021/08/31 05:28:23;;;;;;;7.65;2.90;;;;;;;15.12;100.00;101505.59;4965421;28;20504;-69
2021/08/31 05:30:49;;;;;;;7.00;2.85;;;;;;;15.13;100.00;101507.19;4970907;28;20026;-67
2021/08/31 05:33:14;;;;;;;6.20;3.28;;;;;;;15.16;100.00;101507.22;4970822;28;20038;-67
2021/08/31 05:35:40;;;;;;;6.85;3.28;;;;;;;15.21;100.00;101517.00;4969664;28;20031;-68
2021/08/31 05:38:05;;;;;;;6.65;3.08;;;;;;;15.24;100.00;101516.25;4970059;28;20050;-68
2021/08/31 05:40:31;;;;;;;7.50;3.38;;;;;;;15.28;100.00;101508.97;4970840;28;20101;-68
2021/08/31 05:42:56;;;;;;;5.45;3.28;;;;;;;15.34;100.00;101515.66;4970632;28;20115;-67
2021/08/31 05:45:21;;;;;;;6.13;3.17;;;;;;;15.38;100.00;101522.69;4970897;28;20039;-66
2021/08/31 05:47:47;;;;;;;7.13;3.50;;;;;;;15.42;100.00;101522.78;4971580;28;20053;-66
2021/08/31 05:50:12;;;;;;;6.95;2.80;;;;;;;15.47;100.00;101524.38;4969885;28;20035;-67
2021/08/31 05:52:38;;;;;;;5.75;3.00;;;;;;;15.50;100.00;101518.22;4970069;28;20046;-67
2021/08/31 05:55:04;;;;;;;6.32;3.38;;;;;;;15.55;100.00;101524.13;4970538;28;20030;-68
2021/08/31 05:57:29;;;;;;;6.68;2.67;;;;;;;15.58;100.00;101514.47;4971725;28;20039;-67
2021/08/31 05:59:54;;;;;;;5.50;2.97;;;;;;;15.65;100.00;101522.69;4971923;28;20121;-67
2021/08/31 06:02:20;;;;;;;7.03;3.28;;;;;;;15.75;100.00;101519.34;4970185;28;20034;-67
2021/08/31 06:04:45;;;;;;;6.03;3.08;;;;;;;15.80;100.00;101527.16;4971515;28;20618;-68
2021/08/31 06:07:11;;;;;;;14.50;3.50;;;;;;;15.83;100.00;101538.06;4971189;28;20045;-67
2021/08/31 06:09:40;;;;;;;6.03;2.90;;;;;;;15.93;100.00;101532.00;4971389;28;20069;-67
2021/08/31 06:12:11;;;;;;;8.48;3.28;;;;;;;15.98;100.00;101536.34;4969411;28;20030;-68
2021/08/31 06:14:37;;;;;;;6.55;3.40;;;;;;;16.06;100.00;101535.28;4971645;28;20034;-68
2021/08/31 06:17:03;;;;;;;6.32;3.33;;;;;;;16.11;100.00;101534.94;4971133;28;20085;-66
2021/08/31 06:19:29;;;;;;;7.38;3.35;;;;;;;16.24;100.00;101539.75;4968065;28;20030;-67
2021/08/31 06:21:54;;;;;;;8.57;3.50;;;;;;;16.31;100.00;101544.50;4970132;28;20130;-68
2021/08/31 06:24:20;;;;;;;7.68;3.10;;;;;;;16.40;100.00;101545.00;4970757;28;20038;-67
2021/08/31 06:26:45;;;;;;;7.75;3.50;;;;;;;16.41;100.00;101538.41;4971968;28;20121;-67
2021/08/31 06:29:11;;;;;;;6.88;3.67;;;;;;;16.48;100.00;101552.09;4970470;28;20480;-68
2021/08/31 06:31:36;;;;;;;8.40;3.65;;;;;;;16.57;100.00;101549.09;4963936;28;20735;-67
2021/08/31 06:34:02;;;;;;;9.00;3.63;;;;;;;16.59;100.00;101549.50;4965268;28;20038;-67
2021/08/31 06:36:27;;;;;;;7.63;3.80;;;;;;;16.66;100.00;101558.53;4971208;28;20527;-67
2021/08/31 06:38:53;;;;;;;10.43;4.15;;;;;;;16.75;100.00;101555.50;4971489;28;20019;-68
2021/08/31 06:41:18;;;;;;;9.48;4.13;;;;;;;16.72;100.00;101550.81;4970755;28;20109;-68
2021/08/31 06:43:45;;;;;;;9.95;4.35;;;;;;;16.78;100.00;101549.31;4970765;28;20074;-67
2021/08/31 06:46:13;;;;;;;8.18;4.30;;;;;;;16.83;100.00;101546.25;4970970;28;20070;-68
2021/08/31 06:48:42;;;;;;;9.48;4.05;;;;;;;16.94;100.00;101544.38;4971346;28;20507;-68
2021/08/31 06:51:08;;;;;;;10.57;4.15;;;;;;;17.04;100.00;101546.44;4970459;28;20162;-67
2021/08/31 06:53:33;;;;;;;8.45;3.65;;;;;;;17.17;100.00;101542.25;4970026;28;20134;-67
2021/08/31 06:55:59;;;;;;;10.35;3.80;;;;;;;17.29;100.00;101544.69;4970784;28;20484;-67
2021/08/31 06:58:24;;;;;;;7.78;3.95;;;;;;;17.31;100.00;101553.25;4970855;28;20047;-67
2021/08/31 07:00:49;;;;;;;8.18;3.85;;;;;;;17.36;100.00;101544.75;4970475;28;20035;-68
2021/08/31 07:03:15;;;;;;;9.68;4.22;;;;;;;17.41;100.00;101544.38;4967485;28;20038;-67
2021/08/31 07:05:40;;;;;;;10.77;4.75;;;;;;;17.51;100.00;101549.16;4967050;28;20415;-68
2021/08/31 07:08:06;;;;;;;11.90;4.15;;;;;;;17.64;100.00;101544.94;4971171;28;20046;-68
2021/08/31 07:10:31;;;;;;;9.45;3.85;;;;;;;17.76;100.00;101547.34;4969728;28;20039;-67
2021/08/31 07:12:57;;;;;;;9.60;4.30;;;;;;;17.82;100.00;101547.78;4970292;28;20045;-67
2021/08/31 07:15:22;;;;;;;10.10;4.15;;;;;;;17.89;100.00;101550.53;4964821;28;20035;-68
2021/08/31 07:17:48;;;;;;;8.02;3.78;;;;;;;18.06;100.00;101546.34;4967784;28;20074;-67
2021/08/31 07:20:13;;;;;;;8.55;4.00;;;;;;;18.21;100.00;101545.22;4966416;28;20038;-67
2021/08/31 07:22:39;;;;;;;9.32;4.45;;;;;;;18.32;100.00;101549.53;4969569;28;20042;-67
2021/08/31 07:25:05;;;;;;;8.48;3.78;;;;;;;18.46;100.00;101548.84;4967216;28;20034;-68
2021/08/31 07:27:30;;;;;;;9.80;3.72;;;;;;;18.68;100.00;101544.97;4969980;28;20558;-67
2021/08/31 07:29:56;;;;;;;8.10;3.45;;;;;;;18.85;100.00;101552.44;4969638;28;20039;-68
2021/08/31 07:32:21;;;;;;;8.02;3.17;;;;;;;18.99;100.00;101557.88;4966989;28;20070;-67
2021/08/31 07:34:47;;;;;;;5.55;3.05;;;;;;;19.17;100.00;101553.22;4969449;28;20093;-68
2021/08/31 07:37:12;;;;;;;8.52;3.70;;;;;;;19.34;100.00;101559.84;4984996;28;20057;-66
2021/08/31 07:39:38;;;;;;;5.65;2.97;;;;;;;19.50;100.00;101557.50;4967554;28;20514;-67
2021/08/31 07:42:04;;;;;;;4.30;2.83;;;;;;;19.63;100.00;101555.91;4965283;28;20625;-67
2021/08/31 07:44:29;;;;;;;3.42;2.35;;;;;;;19.73;100.00;101566.81;4964461;28;20050;-68
2021/08/31 07:46:55;;;;;;;4.82;2.67;;;;;;;19.97;100.00;101570.69;4970093;28;20109;-66
2021/08/31 07:49:20;;;;;;;5.55;2.78;;;;;;;20.13;100.00;101570.22;4969346;28;20049;-68
2021/08/31 07:51:47;;;;;;;6.05;2.65;;;;;;;20.33;100.00;101568.59;4965870;28;20039;-67
2021/08/31 07:54:13;;;;;;;4.07;2.40;;;;;;;20.45;98.26;101579.88;4966852;28;20050;-67
2021/08/31 07:56:38;;;;;;;6.38;2.72;;;;;;;20.56;96.64;101577.06;4967763;28;20038;-67
2021/08/31 07:59:04;;;;;;;5.30;2.65;;;;;;;20.61;96.88;101579.41;4970548;28;20034;-67
2021/08/31 08:01:30;;;;;;;5.18;2.13;;;;;;;20.73;94.75;101589.09;4966798;28;20066;-67
2021/08/31 08:03:57;;;;;;;4.38;2.13;;;;;;;20.78;94.59;101586.72;4971086;28;20038;-68
2021/08/31 08:06:23;;;;;;;3.03;2.10;;;;;;;20.98;93.92;101593.22;4971108;28;20097;-67
2021/08/31 08:08:48;;;;;;;4.03;1.98;;;;;;;21.14;93.73;101590.78;4984173;28;20065;-67
2021/08/31 08:11:14;;;;;;;5.25;2.00;;;;;;;21.24;92.63;101597.38;4972942;28;20031;-67
2021/08/31 08:13:39;;;;;;;3.28;1.73;;;;;;;21.40;90.79;101594.88;4972599;28;20034;-68
2021/08/31 08:16:05;;;;;;;3.40;1.85;;;;;;;21.49;90.53;101592.44;4986379;28;20627;-67
2021/08/31 08:18:30;;;;;;;5.82;1.90;;;;;;;21.62;90.06;101603.69;4972340;28;20118;-67
2021/08/31 08:20:56;;;;;;;3.47;1.83;;;;;;;21.67;89.14;101601.28;4970541;28;20105;-67
2021/08/31 08:23:22;;;;;;;4.05;2.13;;;;;;;21.73;88.55;101596.94;4970102;28;20077;-67
2021/08/31 08:25:47;;;;;;;6.90;1.98;;;;;;;21.83;88.28;101606.25;4972585;28;20038;-67
2021/08/31 08:28:13;;;;;;;3.22;1.77;;;;;;;21.91;86.39;101605.75;4972178;28;20035;-67
2021/08/31 08:30:38;;;;;;;3.03;1.90;;;;;;;22.02;85.88;101603.69;4972036;28;20170;-67
2021/08/31 08:33:04;;;;;;;2.38;1.80;;;;;;;22.09;85.83;101597.34;4968999;28;20054;-68
2021/08/31 08:35:31;;;;;;;3.67;1.98;;;;;;;22.24;83.31;101604.22;4972115;28;20105;-68
2021/08/31 08:37:58;;;;;;;3.53;2.05;;;;;;;22.28;84.07;101599.44;4970707;28;20734;-67
2021/08/31 08:40:24;;;;;;;2.67;1.98;;;;;;;22.42;83.12;101602.03;4972075;28;20398;-68
2021/08/31 08:42:52;;;;;;;3.47;1.75;;;;;;;22.49;81.61;101609.41;4972029;28;20041;-67
2021/08/31 08:45:18;;;;;;;3.67;1.73;;;;;;;22.62;82.45;101610.41;4972482;28;20043;-68
2021/08/31 08:47:44;;;;;;;3.22;1.73;;;;;;;22.74;81.78;101609.88;4972957;28;20046;-67
2021/08/31 08:50:10;;;;;;;3.08;1.92;;;;;;;22.81;79.56;101616.03;4972791;28;20073;-67
2021/08/31 08:52:36;;;;;;;2.95;2.20;;;;;;;22.93;79.10;101612.72;4971551;28;20078;-68
2021/08/31 08:55:01;;;;;;;3.03;1.80;;;;;;;22.99;77.73;101616.56;4972235;28;20085;-67
2021/08/31 08:57:29;;;;;;;4.95;2.08;;;;;;;23.11;75.83;101607.72;4972665;28;20034;-67
2021/08/31 08:59:55;;;;;;;4.65;2.00;;;;;;;23.19;74.88;101602.88;4987117;28;20073;-68
2021/08/31 09:02:35;;;;;;;2.80;1.77;;;;;;;23.32;72.88;101608.59;4971804;28;20039;-68
2021/08/31 09:05:01;;;;;;;3.22;1.83;;;;;;;23.46;73.91;101608.38;4970495;28;20035;-67
2021/08/31 09:07:28;;;;;;;4.82;2.10;;;;;;;23.55;74.65;101608.59;4971353;28;20038;-68
2021/08/31 09:10:12;;;;;;;3.42;2.00;;;;;;;23.74;75.62;101611.38;4971801;28;20026;-67
2021/08/31 09:12:40;;;;;;;2.70;1.63;;;;;;;23.86;72.65;101612.75;4986445;28;20092;-67
2021/08/31 09:15:27;;;;;;;3.75;2.00;;;;;;;23.78;70.99;101611.31;4970384;28;20376;-68
2021/08/31 09:18:09;;;;;;;3.10;2.00;;;;;;;24.02;72.57;101613.63;4970067;28;20027;-67
2021/08/31 09:20:46;;;;;;;3.22;2.25;;;;;;;24.20;70.94;101615.28;4971538;28;20043;-67
2021/08/31 09:23:23;;;;;;;2.50;1.73;;;;;;;24.26;71.92;101619.84;4970486;28;20042;-67
2021/08/31 09:25:51;;;;;;;3.50;2.10;;;;;;;24.39;71.54;101625.50;4972180;28;20491;-68
2021/08/31 09:28:31;;;;;;;2.25;1.80;;;;;;;24.55;70.48;101620.78;4968684;28;20027;-66
2021/08/31 09:30:57;;;;;;;3.63;2.08;;;;;;;24.71;71.55;101636.59;4969593;28;20054;-67
2021/08/31 09:33:24;;;;;;;2.50;1.80;;;;;;;24.74;67.87;101633.78;4971600;28;20039;-68
2021/08/31 09:36:20;;;;;;;2.85;1.65;;;;;;;24.80;67.29;101634.84;4972352;28;20038;-67
2021/08/31 09:38:51;;;;;;;3.72;1.67;;;;;;;24.86;68.02;101635.88;4954934;28;20124;-67
2021/08/31 09:41:39;;;;;;;2.67;1.95;;;;;;;24.76;63.19;101628.63;4971718;28;20397;-66
2021/08/31 09:44:19;;;;;;;2.25;1.50;;;;;;;24.77;63.78;101627.44;4971803;28;20109;-67
2021/08/31 09:46:49;;;;;;;3.22;1.88;;;;;;;24.91;62.05;101635.38;4966827;28;20110;-67
2021/08/31 09:49:33;;;;;;;2.95;1.90;;;;;;;24.99;63.50;101628.47;4969285;28;20066;-66
2021/08/31 09:52:14;;;;;;;2.90;1.50;;;;;;;25.18;63.94;101642.63;4957456;28;20042;-67
2021/08/31 09:54:44;;;;;;;5.15;1.90;;;;;;;25.32;63.22;101632.03;4969213;28;20522;-68
2021/08/31 09:57:39;;;;;;;2.72;1.55;;;;;;;25.41;60.67;101632.25;4984221;28;20034;-68
2021/08/31 10:00:08;;;;;;;2.80;1.77;;;;;;;25.59;60.69;101634.56;4969850;28;20034;-67
2021/08/31 10:02:33;;;;;;;2.92;1.80;;;;;;;25.64;59.10;101639.53;4967882;28;20053;-68
2021/08/31 10:04:59;;;;;;;2.67;1.70;;;;;;;25.64;59.39;101648.59;4968972;28;20019;-67
2021/08/31 10:07:25;;;;;;;2.67;1.55;;;;;;;25.78;59.40;101631.66;4971272;28;20041;-67
2021/08/31 10:09:53;;;;;;;2.33;1.50;;;;;;;25.83;57.88;101633.09;4970846;28;20121;-68
2021/08/31 10:12:21;;;;;;;2.75;1.70;;;;;;;25.75;59.02;101637.25;4969093;28;20117;-67
2021/08/31 10:14:52;;;;;;;2.63;1.83;;;;;;;25.80;58.31;101640.25;4969216;28;20022;-67
2021/08/31 10:17:19;;;;;;;2.13;1.63;;;;;;;25.61;58.83;101634.91;4970515;28;20608;-67
2021/08/31 10:19:46;;;;;;;2.38;1.80;;;;;;;25.59;58.33;101640.06;4971178;28;20054;-67
2021/08/31 10:22:15;;;;;;;2.42;1.65;;;;;;;25.47;60.69;101633.28;4982421;28;20030;-68
2021/08/31 10:24:45;;;;;;;5.72;1.77;;;;;;;25.57;59.65;101643.25;4984639;28;20101;-67
2021/08/31 10:27:31;;;;;;;3.13;1.75;;;;;;;25.45;59.18;101634.91;4971365;28;20031;-67
2021/08/31 10:30:19;;;;;;;3.67;1.70;;;;;;;25.43;61.09;101632.59;4967195;28;20043;-67
2021/08/31 10:32:46;;;;;;;2.90;2.00;;;;;;;25.65;60.07;101635.56;4969962;28;20447;-67
2021/08/31 10:35:39;;;;;;;4.30;1.73;;;;;;;25.68;59.07;101641.00;4970141;28;20380;-67
2021/08/31 10:38:06;;;;;;;2.97;1.85;;;;;;;25.72;58.86;101640.91;4971118;28;20487;-68
2021/08/31 10:40:41;;;;;;;3.50;1.70;;;;;;;25.57;56.42;101636.97;4970738;28;20054;-67
2021/08/31 10:43:13;;;;;;;2.22;1.40;;;;;;;25.33;58.71;101644.63;4988021;22;20046;-68
2021/08/31 10:45:41;;;;;;;2.47;1.60;;;;;;;25.50;59.34;101646.19;5021548;28;20076;-68
2021/08/31 10:48:22;;;;;;;2.92;1.75;;;;;;;25.64;58.21;101645.84;5002263;28;20030;-68
2021/08/31 10:50:59;;;;;;;2.95;1.88;;;;;;;25.81;54.91;101644.59;5008213;28;20026;-68
2021/08/31 10:53:47;;;;;;;2.53;1.70;;;;;;;26.10;54.28;101641.88;5005272;28;20045;-68
2021/08/31 10:56:25;;;;;;;2.28;1.50;;;;;;;26.37;55.00;101644.25;5009992;28;20040;-68
2021/08/31 10:58:56;;;;;;;3.88;1.60;;;;;;;26.33;52.69;101638.84;5008708;28;20033;-68
2021/08/31 11:01:27;;;;;;;2.03;1.60;;;;;;;26.50;51.66;101647.84;5005558;28;20042;-68
2021/08/31 11:03:54;;;;;;;;;;;;;;;26.55;51.63;101645.28;5009530;28;20072;-68
2021/08/31 11:06:22;;;;;;;2.50;1.70;;;;;;;26.76;52.13;101646.66;5010124;28;19913;-68
2021/08/31 11:09:06;;;;;;;4.80;1.70;;;;;;;26.90;51.87;101643.47;5007761;28;20038;-68
2021/08/31 11:11:32;;;;;;;2.78;2.00;;;;;;;26.71;51.74;101645.22;5006072;28;20029;-68
2021/08/31 11:14:01;;;;;;;2.97;1.70;;;;;;;26.48;51.67;101639.97;5009864;28;20430;-68
2021/08/31 11:16:29;;;;;;;5.47;1.73;;;;;;;26.45;54.42;101660.19;5009514;28;20049;-68
2021/08/31 11:18:55;;;;;;;3.20;1.80;;;;;;;26.49;52.29;101643.50;5008526;28;20034;-68
2021/08/31 11:21:21;;;;;;;2.30;1.45;;;;;;;26.44;51.89;101644.81;5007114;28;20033;-68